Time;durP1;ratioP1;P1;durP2;ratioP2;P2;SDS_P1;SDS_P2;PMS_P1;PMS_P2;Temp;Humidity;BMP_temperature;BMP_pressure;BME280_temperature;BME280_humidity;BME280_pressure;Samples;Min_cycle;Max_cycle;Signal;HPM_P1;HPM_P2
2021/12/10 00:00:27;;;;;;;52.38;22.08;;;;;;;;;;4995595;28;20035;-64
2021/12/10 00:02:53;;;;;;;45.78;21.27;;;;;;;;;;4996026;28;20042;-65
2021/12/10 00:05:25;;;;;;;69.50;30.30;;;;;;;;;;4995725;28;20072;-65
2021/12/10 00:07:51;;;;;;;62.60;28.88;;;;;;;;;;4996013;28;20360;-64
2021/12/10 00:10:20;;;;;;;62.13;25.63;;;;;;;;;;4996472;28;20031;-66
2021/12/10 00:12:50;;;;;;;58.72;26.08;;;;;;;;;;4995634;28;20110;-67
2021/12/10 00:15:19;;;;;;;53.20;23.70;;;;;;;;;;4995793;28;20030;-65
2021/12/10 00:17:45;;;;;;;53.15;22.45;;;;;;;;;;4995737;28;20110;-65
2021/12/10 00:20:12;;;;;;;46.80;21.75;;;;;;;;;;4995408;28;20113;-65
2021/12/10 00:22:50;;;;;;;49.13;22.85;;;;;;;;;;4995705;28;20041;-66
2021/12/10 00:25:19;;;;;;;43.90;21.70;;;;;;;;;;4996033;28;20025;-64
2021/12/10 00:27:46;;;;;;;46.47;22.23;;;;;;;;;;4978638;28;20415;-65
2021/12/10 00:30:15;;;;;;;55.92;21.75;;;;;;;;;;4995557;28;20044;-65
2021/12/10 00:32:44;;;;;;;45.50;20.02;;;;;;;;;;4995509;28;20025;-63
2021/12/10 00:35:13;;;;;;;33.80;17.60;;;;;;;;;;4995663;28;20030;-63
2021/12/10 00:37:39;;;;;;;41.67;18.60;;;;;;;;;;4995509;28;20057;-63
2021/12/10 00:40:07;;;;;;;41.55;19.88;;;;;;;;;;4995275;28;20034;-64
2021/12/10 00:42:34;;;;;;;49.28;21.13;;;;;;;;;;4995264;28;20023;-65
2021/12/10 00:45:01;;;;;;;47.97;19.63;;;;;;;;;;4995382;28;20022;-64
2021/12/10 00:47:28;;;;;;;41.92;18.10;;;;;;;;;;4995213;28;20030;-65
2021/12/10 00:49:54;;;;;;;37.60;15.68;;;;;;;;;;4995207;28;20037;-65
2021/12/10 00:52:21;;;;;;;35.72;16.35;;;;;;;;;;4994309;28;20031;-65
2021/12/10 00:54:47;;;;;;;32.95;15.60;;;;;;;;;;4995395;28;20022;-65
2021/12/10 00:57:14;;;;;;;31.42;15.48;;;;;;;;;;4994499;28;20352;-64
2021/12/10 00:59:41;;;;;;;35.85;16.48;;;;;;;;;;4995047;28;20036;-64
2021/12/10 01:02:08;;;;;;;35.00;17.67;;;;;;;;;;4994501;28;20077;-65
2021/12/10 01:04:36;;;;;;;35.83;16.77;;;;;;;;;;4995090;28;20018;-64
2021/12/10 01:07:04;;;;;;;28.52;13.63;;;;;;;;;;4995097;28;20037;-65
2021/12/10 01:09:32;;;;;;;34.28;15.45;;;;;;;;;;4994999;28;20049;-64
2021/12/10 01:12:06;;;;;;;32.60;14.10;;;;;;;;;;4994882;28;20069;-64
2021/12/10 01:14:56;;;;;;;27.25;13.20;;;;;;;;;;4994503;28;20026;-64
2021/12/10 01:25:53;;;;;;;28.38;13.18;;;;;;;;;;4993851;28;20033;-65
2021/12/10 01:28:19;;;;;;;29.38;14.20;;;;;;;;;;4994585;28;20026;-65
2021/12/10 01:30:45;;;;;;;30.98;13.13;;;;;;;;;;4994386;28;20028;-65
2021/12/10 01:33:14;;;;;;;28.50;14.75;;;;;;;;;;4994514;28;20030;-64
2021/12/10 01:35:43;;;;;;;25.10;12.65;;;;;;;;;;4994426;28;20022;-64
2021/12/10 01:38:11;;;;;;;28.95;13.63;;;;;;;;;;4994183;28;20018;-65
2021/12/10 01:40:38;;;;;;;31.35;15.77;;;;;;;;;;4994101;28;20464;-65
2021/12/10 01:43:11;;;;;;;37.40;16.35;;;;;;;;;;4994283;28;20022;-65
2021/12/10 01:45:46;;;;;;;31.75;14.45;;;;;;;;;;4994490;28;20022;-65
2021/12/10 01:48:18;;;;;;;28.90;14.80;;;;;;;;;;4994759;28;20101;-65
2021/12/10 01:50:44;;;;;;;30.92;15.25;;;;;;;;;;4994053;28;20063;-64
2021/12/10 01:53:12;;;;;;;34.15;16.70;;;;;;;;;;4994389;28;20456;-65
2021/12/10 01:55:40;;;;;;;50.22;21.38;;;;;;;;;;4994793;28;20038;-65
2021/12/10 01:58:08;;;;;;;47.83;21.27;;;;;;;;;;4994300;28;20022;-65
2021/12/10 02:00:37;;;;;;;55.92;23.10;;;;;;;;;;4993988;28;20475;-64
2021/12/10 02:03:03;;;;;;;52.58;23.38;;;;;;;;;;4994024;28;20046;-64
2021/12/10 02:05:30;;;;;;;46.90;20.48;;;;;;;;;;4993063;28;20018;-65
2021/12/10 02:07:58;;;;;;;45.58;20.67;;;;;;;;;;4994112;28;20029;-64
2021/12/10 02:10:26;;;;;;;50.58;22.13;;;;;;;;;;4976521;28;20085;-65
2021/12/10 02:12:53;;;;;;;66.45;27.73;;;;;;;;;;4994116;28;20086;-65
2021/12/10 02:15:21;;;;;;;155.52;65.28;;;;;;;;;;4993803;28;20026;-64
2021/12/10 02:17:49;;;;;;;33.83;15.82;;;;;;;;;;4993823;28;20031;-65
2021/12/10 02:20:17;;;;;;;41.90;17.80;;;;;;;;;;4993078;28;20556;-64
2021/12/10 02:22:44;;;;;;;42.67;18.67;;;;;;;;;;4993947;28;20030;-65
2021/12/10 02:25:11;;;;;;;35.88;16.80;;;;;;;;;;4994005;28;20026;-64
2021/12/10 02:27:38;;;;;;;35.92;17.90;;;;;;;;;;4993714;28;20395;-65
2021/12/10 02:30:06;;;;;;;41.97;18.90;;;;;;;;;;4994022;28;20050;-64
2021/12/10 02:32:32;;;;;;;44.50;20.85;;;;;;;;;;4993750;28;20026;-64
2021/12/10 02:34:59;;;;;;;44.92;19.92;;;;;;;;;;4993951;28;20337;-66
2021/12/10 02:37:25;;;;;;;33.72;16.00;;;;;;;;;;4993980;28;20058;-64
2021/12/10 02:39:51;;;;;;;36.25;17.45;;;;;;;;;;4993400;28;20034;-63
2021/12/10 02:42:18;;;;;;;33.97;16.50;;;;;;;;;;4993801;28;20053;-64
2021/12/10 02:44:44;;;;;;;37.67;16.67;;;;;;;;;;4994331;28;20537;-64
2021/12/10 02:47:10;;;;;;;35.13;15.27;;;;;;;;;;4993381;28;20391;-64
2021/12/10 02:49:36;;;;;;;34.17;15.30;;;;;;;;;;4993539;28;20027;-63
2021/12/10 02:52:03;;;;;;;30.58;15.02;;;;;;;;;;4993791;28;20015;-64
2021/12/10 02:54:36;;;;;;;33.85;15.68;;;;;;;;;;4993430;28;20033;-64
2021/12/10 02:57:09;;;;;;;28.85;14.73;;;;;;;;;;4993869;28;20081;-64
2021/12/10 02:59:36;;;;;;;34.65;15.23;;;;;;;;;;4993603;28;20031;-64
2021/12/10 03:02:04;;;;;;;32.58;15.73;;;;;;;;;;4993768;28;20503;-63
2021/12/10 03:04:32;;;;;;;30.95;14.63;;;;;;;;;;4976378;28;20486;-64
2021/12/10 03:07:01;;;;;;;28.65;14.10;;;;;;;;;;4993202;28;20537;-64
2021/12/10 03:09:28;;;;;;;32.92;13.70;;;;;;;;;;4993673;28;20032;-65
2021/12/10 03:11:56;;;;;;;33.45;15.85;;;;;;;;;;4993275;28;20425;-64
2021/12/10 03:14:25;;;;;;;34.40;14.30;;;;;;;;;;4976319;28;20456;-64
2021/12/10 03:16:52;;;;;;;29.73;14.80;;;;;;;;;;4995683;28;20026;-64
2021/12/10 03:19:18;;;;;;;30.45;12.85;;;;;;;;;;4996850;28;20399;-64
2021/12/10 03:21:46;;;;;;;25.15;12.68;;;;;;;;;;4996810;28;20490;-63
2021/12/10 03:24:16;;;;;;;28.48;14.02;;;;;;;;;;4996955;28;20030;-64
2021/12/10 03:26:42;;;;;;;31.20;14.50;;;;;;;;;;4996703;28;20113;-65
2021/12/10 03:29:09;;;;;;;33.67;15.60;;;;;;;;;;4996678;28;20114;-64
2021/12/10 03:31:35;;;;;;;30.67;15.38;;;;;;;;;;4996821;28;20097;-64
2021/12/10 03:34:02;;;;;;;32.95;16.15;;;;;;;;;;4996882;28;20023;-63
2021/12/10 03:36:28;;;;;;;30.67;14.32;;;;;;;;;;4996323;28;20026;-64
2021/12/10 03:38:55;;;;;;;36.20;16.02;;;;;;;;;;4996590;28;20019;-64
2021/12/10 03:41:21;;;;;;;28.52;13.48;;;;;;;;;;4996174;28;20379;-63
2021/12/10 03:43:50;;;;;;;28.70;13.32;;;;;;;;;;4996381;28;20025;-65
2021/12/10 03:46:16;;;;;;;31.55;13.80;;;;;;;;;;4996265;28;20023;-64
2021/12/10 03:48:45;;;;;;;28.42;12.95;;;;;;;;;;4996407;28;20030;-65
2021/12/10 03:51:13;;;;;;;27.13;13.73;;;;;;;;;;4996390;28;20026;-64
2021/12/10 03:53:40;;;;;;;33.78;13.82;;;;;;;;;;4996124;28;20101;-64
2021/12/10 03:56:08;;;;;;;29.70;14.57;;;;;;;;;;4996010;28;20049;-63
2021/12/10 03:58:34;;;;;;;31.20;14.57;;;;;;;;;;4995982;28;20463;-65
2021/12/10 04:01:01;;;;;;;27.52;14.52;;;;;;;;;;4978558;28;20062;-65
2021/12/10 04:03:28;;;;;;;47.53;21.58;;;;;;;;;;4996273;28;20030;-63
2021/12/10 04:05:55;;;;;;;35.20;17.75;;;;;;;;;;4996047;28;20518;-64
2021/12/10 04:08:22;;;;;;;31.27;16.90;;;;;;;;;;4995964;28;20391;-64
2021/12/10 04:10:49;;;;;;;39.60;17.58;;;;;;;;;;4995875;28;20109;-64
2021/12/10 04:13:15;;;;;;;38.70;18.02;;;;;;;;;;4995901;28;20030;-64
2021/12/10 04:15:41;;;;;;;89.38;34.00;;;;;;;;;;4995801;28;20022;-64
2021/12/10 04:18:08;;;;;;;57.60;27.38;;;;;;;;;;4995807;28;20027;-63
2021/12/10 04:20:35;;;;;;;46.22;23.15;;;;;;;;;;4995890;28;20077;-64
2021/12/10 04:23:03;;;;;;;41.20;21.85;;;;;;;;;;4995823;28;20033;-65
2021/12/10 04:25:29;;;;;;;46.10;21.77;;;;;;;;;;4978177;28;20371;-64
2021/12/10 04:27:57;;;;;;;48.70;24.90;;;;;;;;;;4994485;28;20032;-65
2021/12/10 04:30:24;;;;;;;61.17;28.33;;;;;;;;;;4995200;28;20501;-64
2021/12/10 04:32:50;;;;;;;66.57;30.67;;;;;;;;;;4995717;28;20093;-65
2021/12/10 04:35:18;;;;;;;61.45;26.98;;;;;;;;;;4995518;28;20053;-65
2021/12/10 04:37:44;;;;;;;60.75;25.27;;;;;;;;;;4995134;28;20435;-65
2021/12/10 04:40:12;;;;;;;51.08;23.25;;;;;;;;;;4995417;28;20034;-63
2021/12/10 04:42:39;;;;;;;54.67;26.02;;;;;;;;;;4995176;28;20030;-64
2021/12/10 04:45:06;;;;;;;44.08;21.27;;;;;;;;;;4995106;28;20018;-65
2021/12/10 04:47:34;;;;;;;44.67;20.98;;;;;;;;;;4995189;28;20023;-64
2021/12/10 04:50:01;;;;;;;37.50;18.48;;;;;;;;;;4994920;28;20080;-63
2021/12/10 04:52:27;;;;;;;52.33;23.73;;;;;;;;;;4995009;28;20026;-64
2021/12/10 04:54:53;;;;;;;48.55;21.60;;;;;;;;;;4994807;28;20077;-64
2021/12/10 04:57:20;;;;;;;40.05;20.23;;;;;;;;;;4994851;28;20484;-65
2021/12/10 04:59:46;;;;;;;47.22;20.83;;;;;;;;;;4994837;28;20030;-64
2021/12/10 05:02:15;;;;;;;40.88;19.45;;;;;;;;;;4994526;28;20046;-64
2021/12/10 05:04:43;;;;;;;43.45;21.02;;;;;;;;;;4995074;28;20019;-64
2021/12/10 05:07:11;;;;;;;40.38;20.33;;;;;;;;;;4994609;28;20077;-64
2021/12/10 05:09:37;;;;;;;45.72;20.75;;;;;;;;;;4994106;28;20475;-64
2021/12/10 05:12:04;;;;;;;43.00;20.00;;;;;;;;;;4994582;28;20026;-64
2021/12/10 05:14:31;;;;;;;61.22;26.45;;;;;;;;;;4994815;28;20084;-63
2021/12/10 05:17:03;;;;;;;76.90;31.98;;;;;;;;;;4994781;28;20022;-66
2021/12/10 05:19:29;;;;;;;;;;;;;;;;;;4995310;28;20036;-64
2021/12/10 05:21:59;;;;;;;60.50;27.88;;;;;;;;;;4994881;28;19941;-65
2021/12/10 05:24:25;;;;;;;59.80;26.33;;;;;;;;;;4994710;28;20106;-63
2021/12/10 05:26:52;;;;;;;51.03;23.40;;;;;;;;;;4994258;28;20026;-63
2021/12/10 05:29:18;;;;;;;76.30;29.63;;;;;;;;;;4994386;28;20030;-65
2021/12/10 05:31:44;;;;;;;75.30;30.67;;;;;;;;;;4994235;28;20022;-64
2021/12/10 05:34:11;;;;;;;57.47;26.90;;;;;;;;;;4994387;28;20034;-65
2021/12/10 05:36:37;;;;;;;66.22;30.60;;;;;;;;;;4994482;28;20524;-65
2021/12/10 05:39:05;;;;;;;68.03;30.50;;;;;;;;;;4994411;28;20375;-65
2021/12/10 05:41:31;;;;;;;60.70;28.95;;;;;;;;;;4993598;28;20400;-62
2021/12/10 05:43:58;;;;;;;61.67;27.08;;;;;;;;;;4992265;28;20064;-61
2021/12/10 05:46:24;;;;;;;52.88;24.52;;;;;;;;;;4992997;28;20476;-66
2021/12/10 05:48:50;;;;;;;51.72;23.83;;;;;;;;;;4993978;28;20034;-65
2021/12/10 05:51:17;;;;;;;155.35;64.43;;;;;;;;;;4994121;28;20022;-65
2021/12/10 05:53:44;;;;;;;75.75;32.90;;;;;;;;;;4994261;28;20509;-65
2021/12/10 05:56:10;;;;;;;246.65;98.60;;;;;;;;;;4994237;28;20026;-66
2021/12/10 05:58:42;;;;;;;115.78;47.00;;;;;;;;;;4975464;28;20415;-66
2021/12/10 06:01:10;;;;;;;50.17;25.95;;;;;;;;;;4972845;28;20051;-65
2021/12/10 06:03:37;;;;;;;64.78;26.33;;;;;;;;;;4975015;28;20027;-65
2021/12/10 06:06:04;;;;;;;69.15;31.45;;;;;;;;;;4974455;28;20089;-64
2021/12/10 06:08:44;;;;;;;71.72;32.95;;;;;;;;;;4974209;28;20049;-64
2021/12/10 06:11:10;;;;;;;69.13;31.45;;;;;;;;;;4974546;28;20026;-64
2021/12/10 06:13:36;;;;;;;55.85;24.27;;;;;;;;;;4974683;28;20478;-64
2021/12/10 06:16:03;;;;;;;59.35;27.83;;;;;;;;;;4973126;28;20034;-64
2021/12/10 06:18:29;;;;;;;63.72;30.30;;;;;;;;;;4973828;28;20018;-64
2021/12/10 06:20:56;;;;;;;57.00;26.23;;;;;;;;;;4972891;28;20026;-64
2021/12/10 06:23:22;;;;;;;54.63;27.92;;;;;;;;;;4973759;28;20031;-64
2021/12/10 06:25:49;;;;;;;106.53;48.38;;;;;;;;;;4974538;28;20080;-65
2021/12/10 06:28:15;;;;;;;87.63;43.30;;;;;;;;;;4974481;28;20080;-66
2021/12/10 06:30:44;;;;;;;189.25;91.18;;;;;;;;;;4974264;28;20031;-64
2021/12/10 06:33:15;;;;;;;199.20;92.95;;;;;;;;;;4974256;28;20022;-67
2021/12/10 06:35:42;;;;;;;142.27;68.45;;;;;;;;;;4974409;28;20023;-65
2021/12/10 06:38:09;;;;;;;102.13;49.20;;;;;;;;;;4974050;28;20037;-65
2021/12/10 06:40:36;;;;;;;70.95;35.95;;;;;;;;;;4973384;28;20027;-65
2021/12/10 06:43:02;;;;;;;57.88;24.38;;;;;;;;;;4972850;28;20023;-67
2021/12/10 06:45:30;;;;;;;55.83;25.17;;;;;;;;;;4973576;28;20135;-65
2021/12/10 06:47:58;;;;;;;56.60;24.83;;;;;;;;;;4972913;28;20022;-64
2021/12/10 06:50:26;;;;;;;48.40;23.27;;;;;;;;;;4974372;28;20030;-64
2021/12/10 06:52:53;;;;;;;48.30;24.38;;;;;;;;;;4978003;28;20030;-65
2021/12/10 06:55:19;;;;;;;46.72;22.83;;;;;;;;;;4976373;28;20034;-64
2021/12/10 06:57:45;;;;;;;40.97;19.95;;;;;;;;;;4975843;28;20022;-65
2021/12/10 07:00:18;;;;;;;46.67;21.42;;;;;;;;;;4976752;28;20114;-65
2021/12/10 07:02:46;;;;;;;96.07;43.47;;;;;;;;;;4993376;28;20391;-68
2021/12/10 07:05:12;;;;;;;120.55;56.20;;;;;;;;;;4996925;28;20463;-64
2021/12/10 07:07:38;;;;;;;65.15;30.83;;;;;;;;;;4996714;28;20030;-67
2021/12/10 07:10:06;;;;;;;50.85;23.48;;;;;;;;;;4997223;28;20471;-65
2021/12/10 07:12:34;;;;;;;45.25;23.23;;;;;;;;;;4996800;28;20027;-64
2021/12/10 07:15:02;;;;;;;51.22;23.67;;;;;;;;;;4997100;28;20105;-62
2021/12/10 07:17:28;;;;;;;50.75;24.85;;;;;;;;;;4997211;28;20026;-65
2021/12/10 07:19:54;;;;;;;45.03;22.38;;;;;;;;;;4996841;28;20034;-62
2021/12/10 07:22:20;;;;;;;54.90;25.92;;;;;;;;;;4996760;28;20476;-63
2021/12/10 07:24:46;;;;;;;67.55;33.22;;;;;;;;;;4996772;28;20451;-65
2021/12/10 07:27:13;;;;;;;54.05;26.67;;;;;;;;;;4996505;28;20033;-63
2021/12/10 07:29:40;;;;;;;48.35;23.98;;;;;;;;;;4996854;28;20030;-64
2021/12/10 07:32:07;;;;;;;58.60;25.77;;;;;;;;;;4997043;28;20065;-66
2021/12/10 07:34:33;;;;;;;56.17;26.20;;;;;;;;;;4996896;28;20022;-63
2021/12/10 07:36:59;;;;;;;53.10;26.02;;;;;;;;;;4996476;28;20023;-64
2021/12/10 07:39:26;;;;;;;55.63;26.40;;;;;;;;;;4979821;28;20402;-64
2021/12/10 07:41:53;;;;;;;53.55;25.95;;;;;;;;;;4996976;28;20456;-64
2021/12/10 07:44:19;;;;;;;53.90;23.75;;;;;;;;;;4996672;28;20055;-63
2021/12/10 07:46:48;;;;;;;48.97;23.65;;;;;;;;;;4996808;28;20387;-64
2021/12/10 07:49:17;;;;;;;49.92;21.27;;;;;;;;;;4996577;28;20030;-64
2021/12/10 07:51:47;;;;;;;48.88;19.98;;;;;;;;;;4996846;28;20106;-66
2021/12/10 07:54:15;;;;;;;41.25;18.67;;;;;;;;;;4997071;28;20053;-63
2021/12/10 07:56:41;;;;;;;44.10;17.52;;;;;;;;;;4996441;28;20073;-65
2021/12/10 07:59:07;;;;;;;39.38;17.20;;;;;;;;;;4996637;28;20501;-64
2021/12/10 08:01:33;;;;;;;43.10;17.17;;;;;;;;;;4995604;28;20042;-64
2021/12/10 08:04:01;;;;;;;42.08;17.10;;;;;;;;;;4995474;28;20014;-65
2021/12/10 08:06:29;;;;;;;35.97;16.63;;;;;;;;;;4996370;28;20026;-64
2021/12/10 08:08:56;;;;;;;39.42;16.75;;;;;;;;;;4995824;28;20019;-64
2021/12/10 08:11:23;;;;;;;28.67;13.40;;;;;;;;;;4996147;28;20027;-65
2021/12/10 08:13:50;;;;;;;39.28;16.45;;;;;;;;;;4996457;28;20022;-63
2021/12/10 08:16:17;;;;;;;37.30;17.13;;;;;;;;;;4995723;28;20375;-63
2021/12/10 08:18:43;;;;;;;44.58;17.38;;;;;;;;;;4996011;28;20031;-63
2021/12/10 08:21:09;;;;;;;43.88;19.42;;;;;;;;;;4996232;28;20031;-65
2021/12/10 08:23:36;;;;;;;39.25;18.08;;;;;;;;;;4996026;28;20022;-63
2021/12/10 08:26:03;;;;;;;39.83;16.25;;;;;;;;;;4978405;28;20030;-64
2021/12/10 08:28:32;;;;;;;48.47;20.02;;;;;;;;;;4995737;28;20379;-63
2021/12/10 08:30:59;;;;;;;37.30;16.25;;;;;;;;;;4995570;28;20499;-63
2021/12/10 08:33:26;;;;;;;32.60;14.98;;;;;;;;;;4995443;28;20365;-64
2021/12/10 08:35:58;;;;;;;27.98;14.27;;;;;;;;;;4995849;28;20085;-63
2021/12/10 08:38:25;;;;;;;34.13;14.30;;;;;;;;;;4995556;28;20439;-63
2021/12/10 08:40:55;;;;;;;32.03;13.25;;;;;;;;;;4995566;28;20030;-63
2021/12/10 08:43:22;;;;;;;30.77;13.07;;;;;;;;;;4995144;28;20109;-63
2021/12/10 08:45:48;;;;;;;28.25;12.40;;;;;;;;;;4995792;28;20471;-63
2021/12/10 08:48:15;;;;;;;25.98;12.57;;;;;;;;;;4995277;28;20077;-63
2021/12/10 08:50:41;;;;;;;30.08;11.75;;;;;;;;;;4995479;28;20026;-64
2021/12/10 08:53:12;;;;;;;26.38;13.38;;;;;;;;;;4995016;28;20383;-65
2021/12/10 08:55:39;;;;;;;30.15;11.98;;;;;;;;;;4995218;28;20026;-64
2021/12/10 08:58:06;;;;;;;33.00;13.88;;;;;;;;;;4995037;28;20030;-63
2021/12/10 09:00:32;;;;;;;30.10;13.30;;;;;;;;;;4994755;28;20027;-65
2021/12/10 09:02:59;;;;;;;28.38;13.25;;;;;;;;;;4994677;28;20057;-63
2021/12/10 09:05:26;;;;;;;30.50;14.15;;;;;;;;;;4994942;28;20026;-63
2021/12/10 09:07:53;;;;;;;26.05;12.65;;;;;;;;;;4994674;28;20027;-64
2021/12/10 09:10:20;;;;;;;30.30;13.68;;;;;;;;;;4994822;28;20033;-63
2021/12/10 09:12:47;;;;;;;30.02;14.27;;;;;;;;;;4994648;28;20387;-64
2021/12/10 09:15:18;;;;;;;33.42;15.00;;;;;;;;;;4995058;28;20419;-63
2021/12/10 09:17:44;;;;;;;36.83;13.90;;;;;;;;;;4994521;28;20468;-65
2021/12/10 09:20:14;;;;;;;29.10;13.82;;;;;;;;;;4995067;28;20101;-63
2021/12/10 09:22:41;;;;;;;31.35;13.82;;;;;;;;;;4994434;28;20077;-62
2021/12/10 09:25:07;;;;;;;40.22;15.40;;;;;;;;;;4994619;28;20022;-64
2021/12/10 09:27:33;;;;;;;38.20;16.38;;;;;;;;;;4994491;28;20472;-63
2021/12/10 09:30:00;;;;;;;34.50;16.35;;;;;;;;;;4994643;28;20026;-62
2021/12/10 09:32:26;;;;;;;40.55;17.15;;;;;;;;;;4994247;28;20033;-63
2021/12/10 09:34:54;;;;;;;33.90;16.15;;;;;;;;;;4994754;28;20057;-64
2021/12/10 09:37:22;;;;;;;32.95;15.60;;;;;;;;;;4994644;28;20030;-64
2021/12/10 09:39:49;;;;;;;33.88;15.82;;;;;;;;;;4994354;28;20037;-64
2021/12/10 09:42:17;;;;;;;38.13;15.68;;;;;;;;;;4994680;28;20105;-65
2021/12/10 09:44:43;;;;;;;38.65;17.83;;;;;;;;;;4994506;28;20022;-64
2021/12/10 09:47:14;;;;;;;39.28;16.25;;;;;;;;;;4994261;28;20027;-63
2021/12/10 09:49:42;;;;;;;34.80;16.80;;;;;;;;;;4994665;28;20019;-64
2021/12/10 09:52:08;;;;;;;41.45;16.02;;;;;;;;;;4993826;28;20490;-63
2021/12/10 09:54:35;;;;;;;36.92;16.83;;;;;;;;;;4994408;28;20026;-65
2021/12/10 09:57:10;;;;;;;35.60;15.93;;;;;;;;;;4994099;28;20114;-64
2021/12/10 09:59:37;;;;;;;39.15;17.60;;;;;;;;;;4994079;28;20041;-63
2021/12/10 10:02:04;;;;;;;37.15;15.70;;;;;;;;;;4994173;28;20050;-64
2021/12/10 10:04:34;;;;;;;41.60;17.20;;;;;;;;;;4994188;28;20021;-63
2021/12/10 10:07:05;;;;;;;40.10;17.15;;;;;;;;;;4994153;28;20049;-64
2021/12/10 10:09:31;;;;;;;42.28;15.88;;;;;;;;;;4994578;28;20022;-63
2021/12/10 10:12:00;;;;;;;44.60;17.38;;;;;;;;;;4994097;28;20032;-62
2021/12/10 10:14:27;;;;;;;38.67;16.67;;;;;;;;;;4993984;28;20014;-64
2021/12/10 10:16:53;;;;;;;38.80;15.50;;;;;;;;;;4994297;28;20054;-64
2021/12/10 10:19:19;;;;;;;38.40;16.58;;;;;;;;;;4994144;28;20031;-65
2021/12/10 10:21:49;;;;;;;36.53;16.65;;;;;;;;;;4994055;28;20037;-65
2021/12/10 10:24:15;;;;;;;41.10;16.27;;;;;;;;;;4994342;28;20419;-64
2021/12/10 10:26:44;;;;;;;40.55;15.07;;;;;;;;;;4996988;28;20030;-67
2021/12/10 10:29:13;;;;;;;89.88;30.75;;;;;;;;;;4997882;28;20061;-65
2021/12/10 10:31:41;;;;;;;64.75;24.27;;;;;;;;;;4998051;28;20030;-67
2021/12/10 10:34:09;;;;;;;37.88;15.95;;;;;;;;;;4997903;28;20018;-67
2021/12/10 10:36:36;;;;;;;64.22;25.40;;;;;;;;;;4997722;28;20054;-64
2021/12/10 10:39:22;;;;;;;70.50;28.50;;;;;;;;;;4997583;28;20480;-65
2021/12/10 10:41:50;;;;;;;40.92;16.50;;;;;;;;;;4998203;28;20026;-66
2021/12/10 10:44:17;;;;;;;39.53;17.08;;;;;;;;;;4997923;28;20030;-63
2021/12/10 10:46:45;;;;;;;38.83;16.00;;;;;;;;;;4997769;28;20575;-63
2021/12/10 10:49:29;;;;;;;51.67;22.58;;;;;;;;;;4997636;28;20031;-63
2021/12/10 10:51:56;;;;;;;47.38;18.92;;;;;;;;;;4997526;28;20018;-64
2021/12/10 10:54:30;;;;;;;48.22;20.65;;;;;;;;;;4997464;28;20054;-64
2021/12/10 10:56:56;;;;;;;74.13;32.28;;;;;;;;;;4997942;28;20025;-64
2021/12/10 10:59:25;;;;;;;59.58;24.38;;;;;;;;;;4997463;28;20034;-66
2021/12/10 11:01:59;;;;;;;64.38;29.30;;;;;;;;;;4997347;28;20054;-64
2021/12/10 11:04:27;;;;;;;64.57;26.98;;;;;;;;;;4997320;28;20018;-64
2021/12/10 11:06:57;;;;;;;68.82;29.10;;;;;;;;;;4997375;28;20018;-64
2021/12/10 11:09:26;;;;;;;101.28;38.35;;;;;;;;;;4996883;28;20505;-64
2021/12/10 11:11:54;;;;;;;120.68;46.10;;;;;;;;;;4997234;28;20026;-65
2021/12/10 11:14:25;;;;;;;88.18;37.22;;;;;;;;;;4997090;28;20026;-66
2021/12/10 11:16:53;;;;;;;70.15;30.00;;;;;;;;;;4997178;28;20026;-65
2021/12/10 11:19:21;;;;;;;48.50;21.60;;;;;;;;;;4997096;28;20034;-65
2021/12/10 11:21:53;;;;;;;54.55;21.95;;;;;;;;;;4997034;28;20077;-65
2021/12/10 11:24:23;;;;;;;54.65;25.17;;;;;;;;;;4997127;28;20101;-63
2021/12/10 11:27:00;;;;;;;55.30;20.50;;;;;;;;;;4996973;28;20494;-66
2021/12/10 11:29:40;;;;;;;60.67;23.17;;;;;;;;;;4996669;28;20518;-66
2021/12/10 11:32:36;;;;;;;62.10;26.42;;;;;;;;;;4996537;28;20073;-64
2021/12/10 11:35:20;;;;;;;65.22;25.88;;;;;;;;;;4979827;28;20479;-65
2021/12/10 11:37:59;;;;;;;66.45;25.85;;;;;;;;;;4996467;28;20482;-65
2021/12/10 11:40:31;;;;;;;58.88;25.48;;;;;;;;;;4996714;28;20030;-63
2021/12/10 11:43:03;;;;;;;75.50;34.17;;;;;;;;;;4997030;28;20109;-64
2021/12/10 11:45:44;;;;;;;66.32;25.25;;;;;;;;;;4996644;28;20022;-63
2021/12/10 11:48:13;;;;;;;71.85;30.10;;;;;;;;;;4996678;28;20022;-65
2021/12/10 11:50:45;;;;;;;72.18;29.27;;;;;;;;;;4996529;28;20022;-65
2021/12/10 11:53:17;;;;;;;74.78;27.88;;;;;;;;;;4996191;28;20018;-63
2021/12/10 11:56:01;;;;;;;66.57;26.88;;;;;;;;;;4996689;28;20033;-64
2021/12/10 11:58:28;;;;;;;62.88;25.77;;;;;;;;;;4996241;28;20475;-64
2021/12/10 12:00:54;;;;;;;48.80;19.50;;;;;;;;;;4996356;28;20035;-63
2021/12/10 12:03:24;;;;;;;41.40;18.65;;;;;;;;;;4996628;28;20026;-63
2021/12/10 12:05:52;;;;;;;41.10;16.20;;;;;;;;;;4996163;28;20102;-64
2021/12/10 12:08:19;;;;;;;40.72;16.10;;;;;;;;;;4996226;28;20026;-65
2021/12/10 12:10:47;;;;;;;33.65;15.10;;;;;;;;;;4995830;28;20526;-64
2021/12/10 12:15:47;;;;;;;36.97;15.52;;;;;;;;;;4996062;28;20035;-64
2021/12/10 12:18:25;;;;;;;32.33;15.30;;;;;;;;;;4996489;28;20027;-65
2021/12/10 12:21:03;;;;;;;34.15;13.73;;;;;;;;;;4995985;28;20069;-64
2021/12/10 12:26:17;;;;;;;35.90;14.80;;;;;;;;;;4995665;28;20037;-65
2021/12/10 12:28:48;;;;;;;35.30;16.40;;;;;;;;;;4995544;28;20360;-64
2021/12/10 12:31:19;;;;;;;43.93;15.60;;;;;;;;;;4995842;28;20164;-63
2021/12/10 12:33:45;;;;;;;;;;;;;;;;;;4996349;28;20302;-65
2021/12/10 12:36:14;;;;;;;49.58;15.85;;;;;;;;;;4995832;28;20004;-65
2021/12/10 12:38:43;;;;;;;42.40;14.82;;;;;;;;;;4995631;28;20030;-66
2021/12/10 12:41:15;;;;;;;44.83;16.67;;;;;;;;;;4995154;28;20030;-64
2021/12/10 12:43:42;;;;;;;45.78;16.45;;;;;;;;;;4995228;28;20427;-65
2021/12/10 12:46:09;;;;;;;44.22;18.05;;;;;;;;;;4995315;28;20101;-63
2021/12/10 12:48:37;;;;;;;60.42;21.73;;;;;;;;;;4994470;28;20539;-64
2021/12/10 12:51:19;;;;;;;56.75;21.25;;;;;;;;;;4994995;28;20085;-65
2021/12/10 12:53:47;;;;;;;56.20;19.77;;;;;;;;;;4995699;28;20027;-64
2021/12/10 12:56:14;;;;;;;47.60;18.85;;;;;;;;;;4995203;28;20022;-65
2021/12/10 12:58:53;;;;;;;51.50;20.13;;;;;;;;;;4994981;28;20026;-65
2021/12/10 13:01:31;;;;;;;67.90;23.50;;;;;;;;;;4994862;28;20054;-65
2021/12/10 13:03:59;;;;;;;50.28;19.77;;;;;;;;;;4994844;28;20073;-66
2021/12/10 13:06:26;;;;;;;62.38;21.15;;;;;;;;;;4994941;28;20022;-64
2021/12/10 13:09:00;;;;;;;67.43;22.95;;;;;;;;;;4993428;28;20029;-64
2021/12/10 13:11:30;;;;;;;83.47;31.08;;;;;;;;;;4977343;28;20069;-64
2021/12/10 13:14:17;;;;;;;123.30;52.78;;;;;;;;;;4994632;28;20046;-65
2021/12/10 13:16:49;;;;;;;88.75;35.85;;;;;;;;;;4994857;28;20360;-65
2021/12/10 13:19:18;;;;;;;78.68;31.27;;;;;;;;;;4994985;28;20030;-65
2021/12/10 13:21:45;;;;;;;67.25;28.23;;;;;;;;;;4994882;28;20081;-65
2021/12/10 13:24:12;;;;;;;86.90;35.38;;;;;;;;;;4994271;28;20460;-64
2021/12/10 13:26:39;;;;;;;88.05;35.70;;;;;;;;;;4994353;28;20029;-65
2021/12/10 13:29:05;;;;;;;88.43;32.58;;;;;;;;;;4992963;28;20041;-65
2021/12/10 13:31:31;;;;;;;74.00;28.75;;;;;;;;;;4992665;28;20029;-66
2021/12/10 13:33:59;;;;;;;86.55;34.08;;;;;;;;;;4992184;28;20073;-65
2021/12/10 13:36:25;;;;;;;81.78;34.35;;;;;;;;;;4993615;28;20407;-63
2021/12/10 13:38:53;;;;;;;101.45;40.00;;;;;;;;;;4994153;28;20383;-66
2021/12/10 13:41:21;;;;;;;89.85;35.63;;;;;;;;;;4994337;28;20034;-64
2021/12/10 13:43:51;;;;;;;78.88;30.42;;;;;;;;;;4992516;28;20027;-63
2021/12/10 13:46:17;;;;;;;81.87;29.53;;;;;;;;;;4994429;28;20033;-63
2021/12/10 13:48:44;;;;;;;74.18;26.80;;;;;;;;;;4994371;28;20027;-64
2021/12/10 13:51:12;;;;;;;75.40;31.10;;;;;;;;;;4994358;28;20472;-65
2021/12/10 13:53:38;;;;;;;88.32;34.17;;;;;;;;;;4993901;28;20399;-64
2021/12/10 13:56:07;;;;;;;78.15;31.70;;;;;;;;;;4994114;28;20022;-64
2021/12/10 13:58:59;;;;;;;70.25;28.55;;;;;;;;;;4994206;28;20014;-64
2021/12/10 14:01:25;;;;;;;74.28;28.13;;;;;;;;;;4990702;28;20051;-65
2021/12/10 14:03:58;;;;;;;61.65;25.95;;;;;;;;;;4994339;28;20028;-66
2021/12/10 14:06:33;;;;;;;66.93;26.92;;;;;;;;;;4993881;28;20105;-65
2021/12/10 14:09:13;;;;;;;73.22;27.95;;;;;;;;;;4994286;28;20025;-64
2021/12/10 14:11:55;;;;;;;61.55;24.67;;;;;;;;;;4993958;28;20022;-64
2021/12/10 14:14:29;;;;;;;69.00;25.90;;;;;;;;;;4993472;28;20014;-65
2021/12/10 14:16:57;;;;;;;62.22;26.25;;;;;;;;;;4993995;28;20084;-65
2021/12/10 14:19:40;;;;;;;72.32;30.02;;;;;;;;;;4993604;28;20034;-67
2021/12/10 14:22:08;;;;;;;65.15;25.95;;;;;;;;;;4993654;28;20031;-64
2021/12/10 14:24:52;;;;;;;60.67;25.48;;;;;;;;;;4994113;28;20031;-64
2021/12/10 14:27:20;;;;;;;59.50;25.80;;;;;;;;;;4993662;28;20423;-65
2021/12/10 14:30:06;;;;;;;75.43;30.38;;;;;;;;;;4993937;28;20030;-64
2021/12/10 14:32:32;;;;;;;68.63;29.40;;;;;;;;;;4993636;28;20383;-64
2021/12/10 14:35:10;;;;;;;60.83;28.15;;;;;;;;;;4993700;28;20060;-64
2021/12/10 14:37:51;;;;;;;64.15;27.23;;;;;;;;;;4993772;28;20022;-65